sensor_id;sensor_type;location;lat;lon;timestamp;pressure;altitude;pressure_sealevel;temperature;humidity
16777;BME280;8505;49.456;8.164;2024-02-26T00:02:27;97877.09;;;7.24;77.91
16777;BME280;8505;49.456;8.164;2024-02-26T00:04:55;97875.03;;;7.19;77.84
16777;BME280;8505;49.456;8.164;2024-02-26T00:07:22;97878.91;;;7.23;78.54
16777;BME280;8505;49.456;8.164;2024-02-26T00:09:50;97876.72;;;7.34;77.70
16777;BME280;8505;49.456;8.164;2024-02-26T00:12:19;97867.00;;;7.34;77.86
16777;BME280;8505;49.456;8.164;2024-02-26T00:14:47;97868.41;;;7.30;77.87
16777;BME280;8505;49.456;8.164;2024-02-26T00:17:16;97880.94;;;7.21;78.34
16777;BME280;8505;49.456;8.164;2024-02-26T00:19:44;97873.03;;;7.21;77.98
16777;BME280;8505;49.456;8.164;2024-02-26T00:22:11;97871.44;;;7.27;78.61
16777;BME280;8505;49.456;8.164;2024-02-26T00:24:40;97871.84;;;7.30;78.38
16777;BME280;8505;49.456;8.164;2024-02-26T00:27:07;97871.88;;;7.37;77.38
16777;BME280;8505;49.456;8.164;2024-02-26T00:29:37;97863.38;;;7.42;78.16
16777;BME280;8505;49.456;8.164;2024-02-26T00:32:05;97869.25;;;7.44;78.09
16777;BME280;8505;49.456;8.164;2024-02-26T00:34:32;97873.38;;;7.53;77.30
16777;BME280;8505;49.456;8.164;2024-02-26T00:37:01;97870.72;;;7.59;75.76
16777;BME280;8505;49.456;8.164;2024-02-26T00:39:29;97863.25;;;7.69;74.69
16777;BME280;8505;49.456;8.164;2024-02-26T00:41:56;97870.75;;;7.72;74.30
16777;BME280;8505;49.456;8.164;2024-02-26T00:44:24;97874.19;;;7.73;74.62
16777;BME280;8505;49.456;8.164;2024-02-26T00:46:54;97869.75;;;7.73;73.97
16777;BME280;8505;49.456;8.164;2024-02-26T00:49:21;97866.31;;;7.80;73.05
16777;BME280;8505;49.456;8.164;2024-02-26T00:51:49;97858.03;;;7.83;71.96
16777;BME280;8505;49.456;8.164;2024-02-26T00:54:17;97862.47;;;7.82;71.62
16777;BME280;8505;49.456;8.164;2024-02-26T00:56:44;97863.91;;;7.91;70.92
16777;BME280;8505;49.456;8.164;2024-02-26T00:59:12;97877.28;;;7.96;70.85
16777;BME280;8505;49.456;8.164;2024-02-26T01:01:40;97881.16;;;8.00;70.62
16777;BME280;8505;49.456;8.164;2024-02-26T01:04:09;97868.97;;;7.93;70.97
16777;BME280;8505;49.456;8.164;2024-02-26T01:06:38;97870.41;;;7.95;71.15
16777;BME280;8505;49.456;8.164;2024-02-26T01:09:20;97887.25;;;8.01;72.47
16777;BME280;8505;49.456;8.164;2024-02-26T01:11:48;97882.78;;;8.01;71.60
16777;BME280;8505;49.456;8.164;2024-02-26T01:14:15;97893.91;;;7.97;71.99
16777;BME280;8505;49.456;8.164;2024-02-26T01:16:43;97906.88;;;7.92;72.46
16777;BME280;8505;49.456;8.164;2024-02-26T01:19:12;97905.84;;;7.86;73.41
16777;BME280;8505;49.456;8.164;2024-02-26T01:21:40;97898.97;;;7.85;73.67
16777;BME280;8505;49.456;8.164;2024-02-26T01:24:08;97902.63;;;7.78;74.73
16777;BME280;8505;49.456;8.164;2024-02-26T01:26:35;97901.00;;;7.83;75.74
16777;BME280;8505;49.456;8.164;2024-02-26T01:29:03;97896.13;;;7.80;76.18
16777;BME280;8505;49.456;8.164;2024-02-26T01:31:30;97899.56;;;7.81;76.17
16777;BME280;8505;49.456;8.164;2024-02-26T01:33:58;97898.13;;;7.78;76.58
16777;BME280;8505;49.456;8.164;2024-02-26T01:36:27;97898.94;;;7.79;77.17
16777;BME280;8505;49.456;8.164;2024-02-26T01:38:55;97891.63;;;7.74;78.58
16777;BME280;8505;49.456;8.164;2024-02-26T01:41:23;97906.41;;;7.68;80.14
16777;BME280;8505;49.456;8.164;2024-02-26T01:43:50;97912.88;;;7.66;81.22
16777;BME280;8505;49.456;8.164;2024-02-26T01:46:18;97907.44;;;7.67;82.57
16777;BME280;8505;49.456;8.164;2024-02-26T01:48:46;97910.22;;;7.53;84.00
16777;BME280;8505;49.456;8.164;2024-02-26T01:51:17;97909.41;;;7.52;84.19
16777;BME280;8505;49.456;8.164;2024-02-26T01:53:46;97909.34;;;7.39;85.54
16777;BME280;8505;49.456;8.164;2024-02-26T01:56:14;97909.88;;;7.21;86.96
16777;BME280;8505;49.456;8.164;2024-02-26T01:58:43;97904.06;;;7.32;87.03
16777;BME280;8505;49.456;8.164;2024-02-26T02:01:11;97905.28;;;7.37;88.46
16777;BME280;8505;49.456;8.164;2024-02-26T02:03:39;97899.19;;;7.29;87.46
16777;BME280;8505;49.456;8.164;2024-02-26T02:06:08;97898.78;;;7.32;87.32
16777;BME280;8505;49.456;8.164;2024-02-26T02:08:37;97905.00;;;7.18;89.72
16777;BME280;8505;49.456;8.164;2024-02-26T02:11:07;97902.22;;;7.26;89.96
16777;BME280;8505;49.456;8.164;2024-02-26T02:13:38;97907.78;;;7.10;91.83
16777;BME280;8505;49.456;8.164;2024-02-26T02:16:06;97902.69;;;7.02;92.47
16777;BME280;8505;49.456;8.164;2024-02-26T02:18:34;97896.94;;;6.92;94.13
16777;BME280;8505;49.456;8.164;2024-02-26T02:21:03;97898.34;;;6.88;94.81
16777;BME280;8505;49.456;8.164;2024-02-26T02:23:31;97894.69;;;6.82;94.60
16777;BME280;8505;49.456;8.164;2024-02-26T02:25:59;97902.44;;;6.90;95.18
16777;BME280;8505;49.456;8.164;2024-02-26T02:28:27;97914.00;;;6.68;97.40
16777;BME280;8505;49.456;8.164;2024-02-26T02:30:55;97907.16;;;6.74;97.33
16777;BME280;8505;49.456;8.164;2024-02-26T02:33:26;97912.59;;;6.66;97.52
16777;BME280;8505;49.456;8.164;2024-02-26T02:35:54;97904.06;;;6.64;97.38
16777;BME280;8505;49.456;8.164;2024-02-26T02:38:23;97906.97;;;6.75;97.01
16777;BME280;8505;49.456;8.164;2024-02-26T02:40:52;97905.78;;;6.78;96.25
16777;BME280;8505;49.456;8.164;2024-02-26T02:43:19;97907.09;;;6.95;95.78
16777;BME280;8505;49.456;8.164;2024-02-26T02:45:47;97907.28;;;6.94;93.55
16777;BME280;8505;49.456;8.164;2024-02-26T02:48:15;97913.00;;;7.04;92.49
16777;BME280;8505;49.456;8.164;2024-02-26T02:50:43;97913.00;;;6.97;91.36
16777;BME280;8505;49.456;8.164;2024-02-26T02:53:10;97913.19;;;6.96;91.54
16777;BME280;8505;49.456;8.164;2024-02-26T02:55:39;97917.22;;;6.98;91.94
16777;BME280;8505;49.456;8.164;2024-02-26T02:58:07;97920.44;;;6.94;94.39
16777;BME280;8505;49.456;8.164;2024-02-26T03:00:35;97919.50;;;6.73;97.18
16777;BME280;8505;49.456;8.164;2024-02-26T03:03:03;97913.50;;;6.86;96.37
16777;BME280;8505;49.456;8.164;2024-02-26T03:05:31;97920.03;;;6.90;96.14
16777;BME280;8505;49.456;8.164;2024-02-26T03:07:58;97916.13;;;6.86;95.02
16777;BME280;8505;49.456;8.164;2024-02-26T03:10:26;97910.88;;;6.86;95.54
16777;BME280;8505;49.456;8.164;2024-02-26T03:12:55;97906.25;;;6.88;96.12
16777;BME280;8505;49.456;8.164;2024-02-26T03:15:23;97908.06;;;6.87;96.05
16777;BME280;8505;49.456;8.164;2024-02-26T03:17:51;97915.53;;;6.84;96.92
16777;BME280;8505;49.456;8.164;2024-02-26T03:20:19;97905.47;;;6.94;96.29
16777;BME280;8505;49.456;8.164;2024-02-26T03:22:46;97906.06;;;6.89;96.49
16777;BME280;8505;49.456;8.164;2024-02-26T03:25:14;97909.09;;;6.93;96.61
16777;BME280;8505;49.456;8.164;2024-02-26T03:27:42;97908.16;;;7.01;96.35
16777;BME280;8505;49.456;8.164;2024-02-26T03:30:11;97900.84;;;6.96;96.17
16777;BME280;8505;49.456;8.164;2024-02-26T03:32:39;97901.22;;;6.93;97.07
16777;BME280;8505;49.456;8.164;2024-02-26T03:35:07;97897.59;;;6.94;97.25
16777;BME280;8505;49.456;8.164;2024-02-26T03:37:35;97899.03;;;6.97;97.64
16777;BME280;8505;49.456;8.164;2024-02-26T03:40:03;97896.34;;;6.90;98.12
16777;BME280;8505;49.456;8.164;2024-02-26T03:42:31;97897.41;;;6.96;98.84
16777;BME280;8505;49.456;8.164;2024-02-26T03:44:59;97890.72;;;7.00;98.60
16777;BME280;8505;49.456;8.164;2024-02-26T03:47:28;97891.59;;;6.79;99.61
16777;BME280;8505;49.456;8.164;2024-02-26T03:49:56;97895.00;;;6.73;98.96
16777;BME280;8505;49.456;8.164;2024-02-26T03:52:25;97892.72;;;6.91;99.44
16777;BME280;8505;49.456;8.164;2024-02-26T03:54:52;97887.13;;;7.07;97.54
16777;BME280;8505;49.456;8.164;2024-02-26T03:57:20;97887.84;;;6.88;98.31
16777;BME280;8505;49.456;8.164;2024-02-26T03:59:47;97886.09;;;7.02;98.50
16777;BME280;8505;49.456;8.164;2024-02-26T04:02:16;97890.19;;;7.11;98.64
16777;BME280;8505;49.456;8.164;2024-02-26T04:04:47;97888.53;;;7.10;98.44
16777;BME280;8505;49.456;8.164;2024-02-26T04:07:15;97887.84;;;6.88;99.41
16777;BME280;8505;49.456;8.164;2024-02-26T04:09:43;97876.16;;;7.04;98.97
16777;BME280;8505;49.456;8.164;2024-02-26T04:12:10;97880.88;;;7.08;99.03
16777;BME280;8505;49.456;8.164;2024-02-26T04:14:38;97883.47;;;7.02;99.50
16777;BME280;8505;49.456;8.164;2024-02-26T04:17:06;97875.22;;;6.77;100.00
16777;BME280;8505;49.456;8.164;2024-02-26T04:19:34;97878.00;;;7.03;99.12
16777;BME280;8505;49.456;8.164;2024-02-26T04:22:03;97874.91;;;6.93;100.00
16777;BME280;8505;49.456;8.164;2024-02-26T04:24:31;97871.56;;;6.71;100.00
16777;BME280;8505;49.456;8.164;2024-02-26T04:26:59;97877.72;;;6.85;100.00
16777;BME280;8505;49.456;8.164;2024-02-26T04:29:27;97881.59;;;6.96;100.00
16777;BME280;8505;49.456;8.164;2024-02-26T04:31:55;97884.19;;;6.89;100.00
16777;BME280;8505;49.456;8.164;2024-02-26T04:34:22;97884.66;;;6.99;99.43
16777;BME280;8505;49.456;8.164;2024-02-26T04:36:50;97886.34;;;6.79;100.00
16777;BME280;8505;49.456;8.164;2024-02-26T04:39:19;97890.59;;;7.08;99.65
16777;BME280;8505;49.456;8.164;2024-02-26T04:41:47;97891.34;;;7.02;99.59
16777;BME280;8505;49.456;8.164;2024-02-26T04:44:15;97887.72;;;7.03;100.00
16777;BME280;8505;49.456;8.164;2024-02-26T04:46:43;97884.88;;;7.04;100.00
16777;BME280;8505;49.456;8.164;2024-02-26T04:49:11;97881.09;;;7.13;100.00
16777;BME280;8505;49.456;8.164;2024-02-26T04:51:39;97890.41;;;7.09;100.00
16777;BME280;8505;49.456;8.164;2024-02-26T04:54:07;97893.22;;;7.08;100.00
16777;BME280;8505;49.456;8.164;2024-02-26T04:56:36;97884.94;;;7.17;100.00
16777;BME280;8505;49.456;8.164;2024-02-26T04:59:03;97882.94;;;7.19;100.00
16777;BME280;8505;49.456;8.164;2024-02-26T05:01:31;97891.47;;;7.21;100.00
16777;BME280;8505;49.456;8.164;2024-02-26T05:03:59;97885.94;;;7.16;99.81
16777;BME280;8505;49.456;8.164;2024-02-26T05:06:27;97882.09;;;7.12;100.00
16777;BME280;8505;49.456;8.164;2024-02-26T05:08:54;97888.09;;;7.00;100.00
16777;BME280;8505;49.456;8.164;2024-02-26T05:11:22;97886.94;;;7.09;100.00
16777;BME280;8505;49.456;8.164;2024-02-26T05:13:51;97883.91;;;7.12;100.00
16777;BME280;8505;49.456;8.164;2024-02-26T05:16:19;97902.78;;;7.15;100.00
16777;BME280;8505;49.456;8.164;2024-02-26T05:18:50;97893.03;;;7.09;100.00
16777;BME280;8505;49.456;8.164;2024-02-26T05:21:18;97888.59;;;7.16;100.00
16777;BME280;8505;49.456;8.164;2024-02-26T05:23:46;97891.84;;;7.18;100.00
16777;BME280;8505;49.456;8.164;2024-02-26T05:26:19;97899.47;;;7.07;100.00
16777;BME280;8505;49.456;8.164;2024-02-26T05:28:47;97897.22;;;7.04;100.00
16777;BME280;8505;49.456;8.164;2024-02-26T05:31:16;97899.56;;;7.20;100.00
16777;BME280;8505;49.456;8.164;2024-02-26T05:33:45;97894.28;;;7.20;100.00
16777;BME280;8505;49.456;8.164;2024-02-26T05:36:18;97894.53;;;7.31;100.00
16777;BME280;8505;49.456;8.164;2024-02-26T05:38:46;97898.38;;;7.36;100.00
16777;BME280;8505;49.456;8.164;2024-02-26T05:41:15;97905.06;;;7.31;100.00
16777;BME280;8505;49.456;8.164;2024-02-26T05:43:42;97900.44;;;7.34;100.00
16777;BME280;8505;49.456;8.164;2024-02-26T05:46:10;97905.44;;;7.28;100.00
16777;BME280;8505;49.456;8.164;2024-02-26T05:48:39;97913.53;;;7.20;100.00
16777;BME280;8505;49.456;8.164;2024-02-26T05:51:07;97910.06;;;7.20;100.00
16777;BME280;8505;49.456;8.164;2024-02-26T05:53:35;97916.31;;;7.12;100.00
16777;BME280;8505;49.456;8.164;2024-02-26T05:56:03;97920.72;;;7.05;100.00
16777;BME280;8505;49.456;8.164;2024-02-26T05:58:31;97913.56;;;6.93;100.00
16777;BME280;8505;49.456;8.164;2024-02-26T06:00:59;97920.22;;;6.88;100.00
16777;BME280;8505;49.456;8.164;2024-02-26T06:03:27;97921.66;;;6.91;100.00
16777;BME280;8505;49.456;8.164;2024-02-26T06:05:56;97928.25;;;6.80;100.00
16777;BME280;8505;49.456;8.164;2024-02-26T06:08:24;97926.84;;;6.78;100.00
16777;BME280;8505;49.456;8.164;2024-02-26T06:10:52;97932.41;;;6.68;100.00
16777;BME280;8505;49.456;8.164;2024-02-26T06:13:20;97933.75;;;6.85;100.00
16777;BME280;8505;49.456;8.164;2024-02-26T06:15:48;97938.59;;;6.82;100.00
16777;BME280;8505;49.456;8.164;2024-02-26T06:18:15;97948.81;;;6.70;100.00
16777;BME280;8505;49.456;8.164;2024-02-26T06:20:43;97953.22;;;6.63;100.00
16777;BME280;8505;49.456;8.164;2024-02-26T06:23:14;97950.50;;;6.78;100.00
16777;BME280;8505;49.456;8.164;2024-02-26T06:25:42;97956.19;;;6.81;100.00
16777;BME280;8505;49.456;8.164;2024-02-26T06:28:09;97968.41;;;6.68;100.00
16777;BME280;8505;49.456;8.164;2024-02-26T06:30:37;97964.31;;;6.59;100.00
16777;BME280;8505;49.456;8.164;2024-02-26T06:33:05;97960.44;;;6.82;100.00
16777;BME280;8505;49.456;8.164;2024-02-26T06:35:33;97971.72;;;6.76;100.00
16777;BME280;8505;49.456;8.164;2024-02-26T06:38:01;97982.19;;;6.91;100.00
16777;BME280;8505;49.456;8.164;2024-02-26T06:40:30;97979.78;;;6.96;100.00
16777;BME280;8505;49.456;8.164;2024-02-26T06:42:57;97988.13;;;7.06;100.00
16777;BME280;8505;49.456;8.164;2024-02-26T06:45:25;97986.97;;;7.09;100.00
16777;BME280;8505;49.456;8.164;2024-02-26T06:47:53;97988.31;;;7.05;100.00
16777;BME280;8505;49.456;8.164;2024-02-26T06:50:22;97986.59;;;7.18;100.00
16777;BME280;8505;49.456;8.164;2024-02-26T06:52:50;97990.09;;;6.98;100.00
16777;BME280;8505;49.456;8.164;2024-02-26T06:55:17;97995.69;;;6.88;100.00
16777;BME280;8505;49.456;8.164;2024-02-26T06:57:46;97994.81;;;7.02;100.00
16777;BME280;8505;49.456;8.164;2024-02-26T07:00:15;97995.25;;;7.12;100.00
16777;BME280;8505;49.456;8.164;2024-02-26T07:02:43;97999.47;;;7.07;100.00
16777;BME280;8505;49.456;8.164;2024-02-26T07:05:11;97993.03;;;7.09;100.00
16777;BME280;8505;49.456;8.164;2024-02-26T07:07:39;98003.03;;;7.20;100.00
16777;BME280;8505;49.456;8.164;2024-02-26T07:10:07;98001.44;;;7.26;100.00
16777;BME280;8505;49.456;8.164;2024-02-26T07:12:35;98015.75;;;7.17;100.00
16777;BME280;8505;49.456;8.164;2024-02-26T07:15:05;98017.03;;;7.27;100.00
16777;BME280;8505;49.456;8.164;2024-02-26T07:17:34;98026.66;;;7.14;100.00
16777;BME280;8505;49.456;8.164;2024-02-26T07:20:03;98012.09;;;7.18;100.00
16777;BME280;8505;49.456;8.164;2024-02-26T07:22:35;98016.47;;;7.04;100.00
16777;BME280;8505;49.456;8.164;2024-02-26T07:25:04;98023.13;;;7.28;100.00
16777;BME280;8505;49.456;8.164;2024-02-26T07:27:34;98018.81;;;7.20;100.00
16777;BME280;8505;49.456;8.164;2024-02-26T07:30:02;98023.75;;;7.02;100.00
16777;BME280;8505;49.456;8.164;2024-02-26T07:32:32;98030.94;;;7.15;100.00
16777;BME280;8505;49.456;8.164;2024-02-26T07:34:59;98029.22;;;7.35;100.00
16777;BME280;8505;49.456;8.164;2024-02-26T07:37:27;98031.47;;;7.10;100.00
16777;BME280;8505;49.456;8.164;2024-02-26T07:39:55;98025.94;;;7.26;100.00
16777;BME280;8505;49.456;8.164;2024-02-26T07:42:23;98038.59;;;7.16;100.00
16777;BME280;8505;49.456;8.164;2024-02-26T07:44:51;98031.00;;;7.00;100.00
16777;BME280;8505;49.456;8.164;2024-02-26T07:47:19;98029.19;;;7.28;100.00
16777;BME280;8505;49.456;8.164;2024-02-26T07:49:48;98029.84;;;6.81;100.00
16777;BME280;8505;49.456;8.164;2024-02-26T07:52:15;98031.47;;;6.61;100.00
16777;BME280;8505;49.456;8.164;2024-02-26T07:54:43;98046.47;;;7.10;100.00
16777;BME280;8505;49.456;8.164;2024-02-26T07:57:10;98051.09;;;7.36;100.00
16777;BME280;8505;49.456;8.164;2024-02-26T07:59:40;98049.06;;;7.31;100.00
16777;BME280;8505;49.456;8.164;2024-02-26T08:02:08;98041.09;;;7.24;100.00
16777;BME280;8505;49.456;8.164;2024-02-26T08:04:35;98041.56;;;7.28;100.00
16777;BME280;8505;49.456;8.164;2024-02-26T08:07:05;98043.19;;;7.36;100.00
16777;BME280;8505;49.456;8.164;2024-02-26T08:09:33;98039.50;;;7.58;100.00
16777;BME280;8505;49.456;8.164;2024-02-26T08:12:01;98042.38;;;7.63;100.00
16777;BME280;8505;49.456;8.164;2024-02-26T08:14:29;98041.13;;;7.59;100.00
16777;BME280;8505;49.456;8.164;2024-02-26T08:16:56;98050.28;;;7.63;100.00
16777;BME280;8505;49.456;8.164;2024-02-26T08:19:25;98042.91;;;7.52;100.00
16777;BME280;8505;49.456;8.164;2024-02-26T08:21:54;98031.44;;;7.31;100.00
16777;BME280;8505;49.456;8.164;2024-02-26T08:24:23;98048.38;;;7.50;100.00
16777;BME280;8505;49.456;8.164;2024-02-26T08:26:51;98050.94;;;7.78;100.00
16777;BME280;8505;49.456;8.164;2024-02-26T08:29:19;98053.31;;;8.01;100.00
16777;BME280;8505;49.456;8.164;2024-02-26T08:31:46;98059.59;;;8.06;100.00
16777;BME280;8505;49.456;8.164;2024-02-26T08:34:15;98060.38;;;8.00;100.00
16777;BME280;8505;49.456;8.164;2024-02-26T08:36:45;98065.31;;;8.17;100.00
16777;BME280;8505;49.456;8.164;2024-02-26T08:39:12;98058.41;;;8.16;100.00
16777;BME280;8505;49.456;8.164;2024-02-26T08:41:42;98055.22;;;8.27;100.00
16777;BME280;8505;49.456;8.164;2024-02-26T08:44:10;98049.72;;;8.28;100.00
16777;BME280;8505;49.456;8.164;2024-02-26T08:46:38;98058.06;;;8.25;100.00
16777;BME280;8505;49.456;8.164;2024-02-26T08:49:06;98051.25;;;8.44;100.00
16777;BME280;8505;49.456;8.164;2024-02-26T08:51:34;98051.84;;;8.46;100.00
16777;BME280;8505;49.456;8.164;2024-02-26T08:54:02;98048.84;;;8.62;100.00
16777;BME280;8505;49.456;8.164;2024-02-26T08:56:30;98057.56;;;8.63;99.09
16777;BME280;8505;49.456;8.164;2024-02-26T08:58:59;98068.31;;;8.55;98.85
16777;BME280;8505;49.456;8.164;2024-02-26T09:01:31;98066.28;;;8.57;100.00
16777;BME280;8505;49.456;8.164;2024-02-26T09:03:59;98066.84;;;8.32;100.00
16777;BME280;8505;49.456;8.164;2024-02-26T09:06:28;98071.34;;;8.58;100.00
16777;BME280;8505;49.456;8.164;2024-02-26T09:08:56;98079.28;;;8.65;99.63
16777;BME280;8505;49.456;8.164;2024-02-26T09:11:27;98077.25;;;8.67;100.00
16777;BME280;8505;49.456;8.164;2024-02-26T09:13:55;98069.75;;;8.83;99.94
16777;BME280;8505;49.456;8.164;2024-02-26T09:16:25;98067.97;;;8.97;99.12
16777;BME280;8505;49.456;8.164;2024-02-26T09:18:53;98069.78;;;9.29;97.96
16777;BME280;8505;49.456;8.164;2024-02-26T09:21:21;98062.44;;;9.38;95.96
16777;BME280;8505;49.456;8.164;2024-02-26T09:23:50;98063.44;;;9.57;94.60
16777;BME280;8505;49.456;8.164;2024-02-26T09:26:18;98073.84;;;9.32;93.28
16777;BME280;8505;49.456;8.164;2024-02-26T09:28:45;98081.16;;;9.43;94.01
16777;BME280;8505;49.456;8.164;2024-02-26T09:31:17;98080.34;;;9.23;94.43
16777;BME280;8505;49.456;8.164;2024-02-26T09:33:46;98076.06;;;8.96;94.92
16777;BME280;8505;49.456;8.164;2024-02-26T09:36:14;98080.56;;;9.15;95.82
16777;BME280;8505;49.456;8.164;2024-02-26T09:38:42;98090.09;;;9.22;94.96
16777;BME280;8505;49.456;8.164;2024-02-26T09:41:27;98089.28;;;9.22;94.35
16777;BME280;8505;49.456;8.164;2024-02-26T09:43:56;98100.06;;;9.33;94.22
16777;BME280;8505;49.456;8.164;2024-02-26T09:46:26;98111.03;;;9.37;93.69
16777;BME280;8505;49.456;8.164;2024-02-26T09:48:55;98113.69;;;9.30;93.79
16777;BME280;8505;49.456;8.164;2024-02-26T09:51:24;98104.13;;;9.23;93.95
16777;BME280;8505;49.456;8.164;2024-02-26T09:53:53;98102.50;;;9.42;94.46
16777;BME280;8505;49.456;8.164;2024-02-26T09:56:21;98108.16;;;9.58;92.82
16777;BME280;8505;49.456;8.164;2024-02-26T09:58:50;98109.75;;;9.92;92.94
16777;BME280;8505;49.456;8.164;2024-02-26T10:01:20;98104.66;;;9.91;89.86
16777;BME280;8505;49.456;8.164;2024-02-26T10:03:53;98111.88;;;10.35;90.56
16777;BME280;8505;49.456;8.164;2024-02-26T10:06:24;98115.72;;;10.39;88.84
16777;BME280;8505;49.456;8.164;2024-02-26T10:08:54;98103.59;;;10.63;89.03
16777;BME280;8505;49.456;8.164;2024-02-26T10:11:23;98103.13;;;10.34;87.48
16777;BME280;8505;49.456;8.164;2024-02-26T10:13:51;98103.31;;;10.39;87.05
16777;BME280;8505;49.456;8.164;2024-02-26T10:16:19;98102.81;;;9.98;88.51
16777;BME280;8505;49.456;8.164;2024-02-26T10:18:48;98102.81;;;9.98;89.96
16777;BME280;8505;49.456;8.164;2024-02-26T10:21:20;98106.00;;;10.26;88.64
16777;BME280;8505;49.456;8.164;2024-02-26T10:23:49;98101.03;;;10.81;87.36
16777;BME280;8505;49.456;8.164;2024-02-26T10:26:18;98104.44;;;11.69;84.21
16777;BME280;8505;49.456;8.164;2024-02-26T10:28:46;98102.06;;;12.04;81.27
16777;BME280;8505;49.456;8.164;2024-02-26T10:31:20;98114.88;;;11.14;81.11
16777;BME280;8505;49.456;8.164;2024-02-26T10:33:48;98110.63;;;11.38;82.09
16777;BME280;8505;49.456;8.164;2024-02-26T10:36:17;98122.44;;;11.60;82.70
16777;BME280;8505;49.456;8.164;2024-02-26T10:38:45;98126.25;;;11.46;83.38
16777;BME280;8505;49.456;8.164;2024-02-26T10:41:14;98124.03;;;11.43;84.04
16777;BME280;8505;49.456;8.164;2024-02-26T10:43:42;98119.53;;;11.44;83.24
16777;BME280;8505;49.456;8.164;2024-02-26T10:46:10;98122.25;;;12.05;81.52
16777;BME280;8505;49.456;8.164;2024-02-26T10:48:38;98117.66;;;11.75;77.67
16777;BME280;8505;49.456;8.164;2024-02-26T10:51:09;98113.81;;;11.47;81.98
16777;BME280;8505;49.456;8.164;2024-02-26T10:53:39;98118.13;;;11.91;80.40
16777;BME280;8505;49.456;8.164;2024-02-26T10:56:10;98134.31;;;11.58;80.72
16777;BME280;8505;49.456;8.164;2024-02-26T10:58:40;98132.69;;;11.82;81.13
16777;BME280;8505;49.456;8.164;2024-02-26T11:01:10;98136.25;;;11.94;80.73
16777;BME280;8505;49.456;8.164;2024-02-26T11:03:39;98137.63;;;11.78;79.41
16777;BME280;8505;49.456;8.164;2024-02-26T11:06:08;98148.81;;;11.80;80.76
16777;BME280;8505;49.456;8.164;2024-02-26T11:08:37;98141.97;;;11.48;81.23
16777;BME280;8505;49.456;8.164;2024-02-26T11:11:05;98144.22;;;11.44;80.79
16777;BME280;8505;49.456;8.164;2024-02-26T11:13:35;98150.50;;;11.50;82.01
16777;BME280;8505;49.456;8.164;2024-02-26T11:16:10;98148.84;;;11.49;82.65
16777;BME280;8505;49.456;8.164;2024-02-26T11:18:39;98138.91;;;11.44;81.96
16777;BME280;8505;49.456;8.164;2024-02-26T11:21:10;98142.75;;;11.48;81.36
16777;BME280;8505;49.456;8.164;2024-02-26T11:23:38;98145.16;;;11.81;80.64
16777;BME280;8505;49.456;8.164;2024-02-26T11:26:07;98147.41;;;12.02;80.32
16777;BME280;8505;49.456;8.164;2024-02-26T11:28:38;98152.75;;;12.98;79.98
16777;BME280;8505;49.456;8.164;2024-02-26T11:31:06;98141.28;;;14.04;73.78
16777;BME280;8505;49.456;8.164;2024-02-26T11:33:36;98136.53;;;14.70;71.74
16777;BME280;8505;49.456;8.164;2024-02-26T11:36:07;98130.81;;;15.06;68.85
16777;BME280;8505;49.456;8.164;2024-02-26T11:38:37;98129.59;;;15.75;68.53
16777;BME280;8505;49.456;8.164;2024-02-26T11:41:05;98135.13;;;15.24;65.07
16777;BME280;8505;49.456;8.164;2024-02-26T11:43:50;98137.09;;;15.95;64.78
16777;BME280;8505;49.456;8.164;2024-02-26T11:46:28;98144.31;;;14.60;66.99
16777;BME280;8505;49.456;8.164;2024-02-26T11:49:00;98152.16;;;14.03;69.39
16777;BME280;8505;49.456;8.164;2024-02-26T11:51:34;98146.69;;;14.21;70.77
16777;BME280;8505;49.456;8.164;2024-02-26T11:54:02;98151.31;;;14.14;68.49
16777;BME280;8505;49.456;8.164;2024-02-26T11:56:33;98153.16;;;14.13;69.27
16777;BME280;8505;49.456;8.164;2024-02-26T11:59:04;98157.25;;;13.69;70.41
16777;BME280;8505;49.456;8.164;2024-02-26T12:01:40;98161.63;;;13.64;71.53
16777;BME280;8505;49.456;8.164;2024-02-26T12:04:17;98161.75;;;12.97;73.63
16777;BME280;8505;49.456;8.164;2024-02-26T12:06:51;98172.47;;;12.43;75.11
16777;BME280;8505;49.456;8.164;2024-02-26T12:09:35;98172.41;;;12.49;75.75
16777;BME280;8505;49.456;8.164;2024-02-26T12:12:05;98170.00;;;12.96;74.17
16777;BME280;8505;49.456;8.164;2024-02-26T12:14:36;98162.56;;;13.16;74.97
16777;BME280;8505;49.456;8.164;2024-02-26T12:17:05;98151.53;;;13.54;74.00
16777;BME280;8505;49.456;8.164;2024-02-26T12:19:35;98169.03;;;13.62;73.96
16777;BME280;8505;49.456;8.164;2024-02-26T12:22:12;98158.53;;;13.14;75.25
16777;BME280;8505;49.456;8.164;2024-02-26T12:24:40;98160.69;;;13.58;74.65
16777;BME280;8505;49.456;8.164;2024-02-26T12:27:08;98161.97;;;13.67;73.69
16777;BME280;8505;49.456;8.164;2024-02-26T12:29:36;98164.13;;;13.47;71.71
16777;BME280;8505;49.456;8.164;2024-02-26T12:32:04;98161.50;;;13.70;72.45
16777;BME280;8505;49.456;8.164;2024-02-26T12:34:35;98159.72;;;13.41;73.41
16777;BME280;8505;49.456;8.164;2024-02-26T12:37:03;98162.75;;;13.33;73.42
16777;BME280;8505;49.456;8.164;2024-02-26T12:39:31;98156.97;;;12.76;73.31
16777;BME280;8505;49.456;8.164;2024-02-26T12:41:59;98160.59;;;12.93;74.10
16777;BME280;8505;49.456;8.164;2024-02-26T12:44:27;98164.28;;;12.63;73.59
16777;BME280;8505;49.456;8.164;2024-02-26T12:47:00;98167.72;;;12.81;74.64
16777;BME280;8505;49.456;8.164;2024-02-26T12:49:29;98166.84;;;12.69;72.59
16777;BME280;8505;49.456;8.164;2024-02-26T12:51:59;98179.06;;;12.88;72.78
16777;BME280;8505;49.456;8.164;2024-02-26T12:54:29;98183.38;;;12.53;72.05
16777;BME280;8505;49.456;8.164;2024-02-26T12:56:59;98190.25;;;12.90;71.58
16777;BME280;8505;49.456;8.164;2024-02-26T12:59:28;98187.22;;;13.05;71.02
16777;BME280;8505;49.456;8.164;2024-02-26T13:01:57;98189.09;;;12.86;71.07
16777;BME280;8505;49.456;8.164;2024-02-26T13:04:26;98198.31;;;12.84;71.92
16777;BME280;8505;49.456;8.164;2024-02-26T13:06:59;98184.84;;;13.45;69.24
16777;BME280;8505;49.456;8.164;2024-02-26T13:09:35;98193.13;;;13.07;68.50
16777;BME280;8505;49.456;8.164;2024-02-26T13:12:04;98189.19;;;13.81;68.27
16777;BME280;8505;49.456;8.164;2024-02-26T13:14:32;98196.22;;;13.64;67.13
16777;BME280;8505;49.456;8.164;2024-02-26T13:17:01;98188.00;;;13.77;67.78
16777;BME280;8505;49.456;8.164;2024-02-26T13:19:29;98193.13;;;14.25;66.78
16777;BME280;8505;49.456;8.164;2024-02-26T13:22:04;98197.03;;;14.57;66.13
16777;BME280;8505;49.456;8.164;2024-02-26T13:24:33;98195.81;;;14.77;63.92